Time;durP1;ratioP1;P1;durP2;ratioP2;P2;SDS_P1;SDS_P2;PMS_P1;PMS_P2;Temp;Humidity;BMP_temperature;BMP_pressure;BME280_temperature;BME280_humidity;BME280_pressure;Samples;Min_cycle;Max_cycle;Signal;HPM_P1;HPM_P2
2023/12/19 00:00:12;;;;;;;1999.90;999.90;;;6.40;99.90;;;;;;4992904;28;20174;-69
2023/12/19 00:02:39;;;;;;;1999.90;999.90;;;6.50;99.90;;;;;;4992990;28;20409;-69
2023/12/19 00:05:08;;;;;;;1999.90;999.90;;;6.60;99.90;;;;;;4992926;28;20436;-69
2023/12/19 00:07:34;;;;;;;1999.90;999.90;;;6.60;99.90;;;;;;4993012;28;20471;-69
2023/12/19 00:10:00;;;;;;;1999.90;999.90;;;6.60;99.90;;;;;;4992768;28;21109;-69
2023/12/19 00:12:25;;;;;;;1999.90;999.90;;;6.60;99.90;;;;;;4992932;28;20194;-69
2023/12/19 00:14:51;;;;;;;1999.90;999.90;;;6.60;99.90;;;;;;4992918;28;20166;-69
2023/12/19 00:17:17;;;;;;;1999.90;999.90;;;6.50;99.90;;;;;;4992892;28;20280;-68
2023/12/19 00:19:42;;;;;;;1999.90;999.90;;;6.50;99.90;;;;;;4992406;28;20320;-69
2023/12/19 00:22:08;;;;;;;1999.90;999.90;;;6.50;99.90;;;;;;4992783;28;20397;-69
2023/12/19 00:24:33;;;;;;;1999.90;999.90;;;6.50;99.90;;;;;;4992659;28;20268;-69
2023/12/19 00:26:59;;;;;;;1999.90;999.90;;;6.50;99.90;;;;;;4992705;28;20165;-69
2023/12/19 00:29:24;;;;;;;1999.90;999.90;;;6.50;99.90;;;;;;4992485;28;20188;-69
2023/12/19 00:31:51;;;;;;;1999.90;999.90;;;6.50;99.90;;;;;;4992784;28;20705;-69
2023/12/19 00:34:17;;;;;;;1999.90;999.90;;;6.50;99.90;;;;;;4992347;28;20209;-69
2023/12/19 00:36:43;;;;;;;1999.90;999.90;;;6.40;99.90;;;;;;4992000;28;20757;-69
2023/12/19 00:39:09;;;;;;;1999.90;999.90;;;6.40;99.90;;;;;;4992327;28;20476;-69
2023/12/19 00:41:34;;;;;;;1999.90;999.90;;;6.40;99.90;;;;;;4992661;28;20837;-69
2023/12/19 00:44:01;;;;;;;1999.90;999.90;;;6.40;99.90;;;;;;4992436;28;20499;-69
2023/12/19 00:46:26;;;;;;;1999.90;999.90;;;6.40;99.90;;;;;;4992475;28;20256;-69
2023/12/19 00:48:52;;;;;;;1999.90;999.90;;;6.40;99.90;;;;;;4992455;28;20879;-69
2023/12/19 00:51:17;;;;;;;1999.90;999.90;;;6.40;99.90;;;;;;4992262;28;20174;-69
2023/12/19 00:53:43;;;;;;;1999.90;999.90;;;6.50;99.90;;;;;;4992301;28;20605;-69
2023/12/19 00:56:09;;;;;;;1999.90;999.90;;;6.40;99.90;;;;;;4992428;28;20201;-69
2023/12/19 00:58:39;;;;;;;1999.90;999.90;;;6.40;99.90;;;;;;4992361;28;20201;-70
2023/12/19 01:01:08;;;;;;;1999.90;999.90;;;6.40;99.90;;;;;;4992201;28;20401;-69
2023/12/19 01:03:34;;;;;;;1999.90;999.90;;;6.50;99.90;;;;;;4992173;28;20745;-69
2023/12/19 01:06:02;;;;;;;1999.90;999.90;;;6.40;99.90;;;;;;4992475;28;20486;-68
2023/12/19 01:08:28;;;;;;;1999.90;999.90;;;6.50;99.90;;;;;;4992045;28;20484;-69
2023/12/19 01:10:54;;;;;;;1999.90;999.90;;;6.50;99.90;;;;;;4992220;28;20444;-69
2023/12/19 01:13:20;;;;;;;1999.90;999.90;;;6.40;99.90;;;;;;4992162;28;20455;-69
2023/12/19 01:15:45;;;;;;;1999.90;999.90;;;6.40;99.90;;;;;;4992189;28;20786;-69
2023/12/19 01:18:11;;;;;;;1999.90;999.90;;;6.50;99.90;;;;;;4992307;28;20836;-69
2023/12/19 01:20:38;;;;;;;1999.90;999.90;;;6.50;99.90;;;;;;4992021;28;20162;-69
2023/12/19 01:23:04;;;;;;;1999.90;999.90;;;6.50;99.90;;;;;;4992092;28;20724;-69
2023/12/19 01:25:29;;;;;;;1999.90;999.90;;;6.70;99.90;;;;;;4992181;28;20412;-69
2023/12/19 01:27:55;;;;;;;1999.90;999.90;;;6.60;99.90;;;;;;4992121;28;20166;-69
2023/12/19 01:30:20;;;;;;;1999.90;999.90;;;6.60;99.90;;;;;;4991928;28;20252;-69
2023/12/19 01:32:46;;;;;;;1999.90;999.90;;;6.60;99.90;;;;;;4992106;28;20197;-69
2023/12/19 01:35:12;;;;;;;1999.90;999.90;;;6.60;99.90;;;;;;4992123;28;20180;-69
2023/12/19 01:37:38;;;;;;;1999.90;999.90;;;;;;;;;;4991995;28;20310;-69
2023/12/19 01:40:07;;;;;;;1999.90;999.90;;;6.60;99.90;;;;;;4991840;28;20593;-69
2023/12/19 01:42:33;;;;;;;1999.90;999.90;;;6.70;99.90;;;;;;4991931;28;20459;-69
2023/12/19 01:45:12;;;;;;;1999.90;999.90;;;6.70;99.90;;;;;;4991967;28;20401;-69
2023/12/19 01:47:41;;;;;;;1999.90;999.90;;;6.80;99.90;;;;;;4993270;28;20400;-69
2023/12/19 01:50:08;;;;;;;1999.90;999.90;;;6.80;99.90;;;;;;4995430;28;20405;-70
2023/12/19 01:52:39;;;;;;;1999.90;999.90;;;6.80;99.90;;;;;;4995255;28;20503;-69
2023/12/19 01:55:06;;;;;;;1999.90;999.90;;;6.70;99.90;;;;;;4995403;28;20905;-69
2023/12/19 01:57:32;;;;;;;1999.90;999.90;;;6.80;99.90;;;;;;4995333;28;20463;-69
2023/12/19 01:59:58;;;;;;;1999.90;999.90;;;6.80;99.90;;;;;;4995107;28;20827;-69
2023/12/19 02:02:24;;;;;;;1999.90;999.90;;;6.90;99.90;;;;;;4995170;28;20641;-69
2023/12/19 02:04:50;;;;;;;1999.90;999.90;;;6.90;99.90;;;;;;4995213;28;20405;-69
2023/12/19 02:07:16;;;;;;;1999.90;999.90;;;6.90;99.90;;;;;;4995207;28;20437;-69
2023/12/19 02:09:41;;;;;;;1999.90;999.90;;;6.90;99.90;;;;;;4994902;28;20433;-69
2023/12/19 02:12:08;;;;;;;1999.90;999.90;;;6.90;99.90;;;;;;4994917;28;20170;-69
2023/12/19 02:14:33;;;;;;;1999.90;999.90;;;7.00;99.90;;;;;;4994955;28;20634;-69
2023/12/19 02:16:59;;;;;;;1999.90;999.90;;;7.00;99.90;;;;;;4995125;28;20420;-69
2023/12/19 02:19:25;;;;;;;1999.90;999.90;;;7.00;99.90;;;;;;4994844;28;20205;-69
2023/12/19 02:21:50;;;;;;;1999.90;999.90;;;7.10;99.90;;;;;;4994923;28;20551;-69
2023/12/19 02:24:17;;;;;;;1999.90;999.90;;;7.10;99.90;;;;;;4994854;28;20166;-69
2023/12/19 02:26:43;;;;;;;1999.90;999.90;;;7.10;99.90;;;;;;4994894;28;20166;-69
2023/12/19 02:29:08;;;;;;;1999.90;999.90;;;7.20;99.90;;;;;;4994867;28;20442;-69
2023/12/19 02:31:34;;;;;;;1999.90;999.90;;;7.20;99.90;;;;;;4994769;28;20173;-69
2023/12/19 02:33:59;;;;;;;1999.90;999.90;;;7.20;99.90;;;;;;4994552;28;20548;-69
2023/12/19 02:36:25;;;;;;;1999.90;999.90;;;7.20;99.90;;;;;;4994658;28;20177;-69
2023/12/19 02:38:50;;;;;;;1999.90;999.90;;;7.30;99.90;;;;;;4994564;28;20193;-69
2023/12/19 02:41:16;;;;;;;1999.90;999.90;;;7.30;99.90;;;;;;4994356;28;20249;-69
2023/12/19 02:43:42;;;;;;;1999.90;999.90;;;7.30;99.90;;;;;;4994433;28;20228;-69
2023/12/19 02:46:07;;;;;;;1999.90;999.90;;;7.30;99.90;;;;;;4994447;28;20182;-69
2023/12/19 02:48:33;;;;;;;1999.90;999.90;;;7.40;99.90;;;;;;4994586;28;20582;-69
2023/12/19 02:50:58;;;;;;;1999.90;999.90;;;7.50;99.90;;;;;;4994200;28;20174;-69
2023/12/19 02:53:24;;;;;;;1999.90;999.90;;;7.50;99.90;;;;;;4994216;28;20449;-69
2023/12/19 02:55:50;;;;;;;1999.90;999.90;;;7.50;99.90;;;;;;4994281;28;20219;-69
2023/12/19 02:58:15;;;;;;;1999.90;999.90;;;7.50;99.90;;;;;;4994159;28;20653;-69
2023/12/19 03:00:41;;;;;;;1999.90;999.90;;;7.40;99.90;;;;;;4993314;28;20213;-70
2023/12/19 03:03:07;;;;;;;1999.90;999.90;;;7.40;99.90;;;;;;4994134;28;20170;-69
2023/12/19 03:05:32;;;;;;;1999.90;999.90;;;7.30;99.90;;;;;;4994122;28;20177;-69
2023/12/19 03:07:58;;;;;;;1999.90;999.90;;;7.40;99.90;;;;;;4994029;28;20892;-69
2023/12/19 03:10:23;;;;;;;1999.90;999.90;;;7.40;99.90;;;;;;4993879;28;20176;-69
2023/12/19 03:12:49;;;;;;;1999.90;999.90;;;7.30;99.90;;;;;;4994061;28;20201;-69
2023/12/19 03:15:15;;;;;;;1999.90;999.90;;;7.30;99.90;;;;;;4993910;28;20170;-69
2023/12/19 03:17:40;;;;;;;1999.90;999.90;;;7.10;99.90;;;;;;4993778;28;20653;-69
2023/12/19 03:20:08;;;;;;;1999.90;999.90;;;7.30;99.90;;;;;;4993663;28;20209;-69
2023/12/19 03:22:33;;;;;;;1999.90;999.90;;;7.30;99.90;;;;;;4993792;28;20177;-69
2023/12/19 03:24:59;;;;;;;1999.90;999.90;;;7.30;99.90;;;;;;4993643;28;20416;-69
2023/12/19 03:27:24;;;;;;;1999.90;999.90;;;7.30;99.90;;;;;;4993711;28;20220;-69
2023/12/19 03:29:50;;;;;;;1999.90;999.90;;;7.30;99.90;;;;;;4993520;28;20282;-69
2023/12/19 03:32:16;;;;;;;1999.90;999.90;;;7.30;99.90;;;;;;4993490;28;20173;-69
2023/12/19 03:34:41;;;;;;;1999.90;999.90;;;7.40;99.90;;;;;;4993684;28;20173;-69
2023/12/19 03:37:07;;;;;;;1999.90;999.90;;;7.30;99.90;;;;;;4993542;28;20520;-69
2023/12/19 03:39:32;;;;;;;1999.90;999.90;;;7.30;99.90;;;;;;4993175;28;20253;-69
2023/12/19 03:41:58;;;;;;;1999.90;999.90;;;7.20;99.90;;;;;;4993331;28;20204;-69
2023/12/19 03:44:23;;;;;;;1999.90;999.90;;;7.10;99.90;;;;;;4993340;28;20177;-69
2023/12/19 03:46:49;;;;;;;1999.90;999.90;;;7.10;99.90;;;;;;4993341;28;20178;-69
2023/12/19 03:49:15;;;;;;;1999.90;999.90;;;7.10;99.90;;;;;;4993069;28;20556;-69
2023/12/19 03:51:40;;;;;;;1999.90;999.90;;;7.10;99.90;;;;;;4993250;28;20170;-69
2023/12/19 03:54:06;;;;;;;1999.90;999.90;;;7.10;99.90;;;;;;4993066;28;20262;-68
2023/12/19 03:56:31;;;;;;;1999.90;999.90;;;7.10;99.90;;;;;;4993414;28;20185;-68
2023/12/19 03:58:57;;;;;;;1999.90;999.90;;;7.10;99.90;;;;;;4993002;28;20700;-69
2023/12/19 04:01:25;;;;;;;1999.90;999.90;;;7.00;99.90;;;;;;4992891;28;20541;-68
2023/12/19 04:03:51;;;;;;;1999.90;999.90;;;7.00;99.90;;;;;;4992988;28;20553;-68
2023/12/19 04:06:16;;;;;;;1999.90;999.90;;;7.00;99.90;;;;;;4993026;28;20413;-67
2023/12/19 04:08:42;;;;;;;1999.90;999.90;;;7.00;99.90;;;;;;4992816;28;20272;-68
2023/12/19 04:11:07;;;;;;;1999.90;999.90;;;7.00;99.90;;;;;;4992673;28;20260;-68
2023/12/19 04:13:33;;;;;;;1999.90;999.90;;;7.00;99.90;;;;;;4992747;28;20206;-68
2023/12/19 04:15:59;;;;;;;1999.90;999.90;;;7.10;99.90;;;;;;4992976;28;20182;-69
2023/12/19 04:18:24;;;;;;;1999.90;999.90;;;7.10;99.90;;;;;;4992983;28;20555;-69
2023/12/19 04:20:50;;;;;;;1999.90;999.90;;;7.20;99.90;;;;;;4992600;28;20655;-69
2023/12/19 04:23:16;;;;;;;1999.90;999.90;;;7.10;99.90;;;;;;4992602;28;20257;-68
2023/12/19 04:25:41;;;;;;;1999.90;999.90;;;7.20;99.90;;;;;;4992738;28;20177;-69
2023/12/19 04:28:07;;;;;;;1999.90;999.90;;;7.40;99.90;;;;;;4992573;28;20479;-68
2023/12/19 04:30:33;;;;;;;1999.90;999.90;;;7.50;99.90;;;;;;4992582;28;20212;-69
2023/12/19 04:32:59;;;;;;;1999.90;999.90;;;7.40;99.90;;;;;;4992608;28;20293;-69
2023/12/19 04:35:24;;;;;;;1999.90;999.90;;;7.60;99.90;;;;;;4992651;28;20173;-68
2023/12/19 04:37:50;;;;;;;1999.90;999.90;;;7.90;99.90;;;;;;4992629;28;20173;-69
2023/12/19 04:40:15;;;;;;;1999.90;999.90;;;7.70;99.90;;;;;;4992319;28;20181;-68
2023/12/19 04:42:41;;;;;;;1999.90;999.90;;;7.70;99.90;;;;;;4992451;28;20189;-68
2023/12/19 04:45:07;;;;;;;1999.90;999.90;;;7.70;99.90;;;;;;4992753;28;20566;-70
2023/12/19 04:47:33;;;;;;;1999.90;999.90;;;7.70;99.90;;;;;;4992702;28;20184;-69
2023/12/19 04:49:58;;;;;;;1999.90;999.90;;;7.60;99.90;;;;;;4992364;28;20483;-69
2023/12/19 04:52:24;;;;;;;1999.90;999.90;;;7.60;99.90;;;;;;4992313;28;20236;-68
2023/12/19 04:54:49;;;;;;;1999.90;999.90;;;7.60;99.90;;;;;;4992359;28;20174;-68
2023/12/19 04:57:15;;;;;;;1999.90;999.90;;;7.60;99.90;;;;;;4992413;28;20175;-69
2023/12/19 04:59:41;;;;;;;1999.90;999.90;;;7.60;99.90;;;;;;4992305;28;20737;-69
2023/12/19 05:02:07;;;;;;;1999.90;999.90;;;7.60;99.90;;;;;;4992407;28;20177;-69
2023/12/19 05:04:32;;;;;;;1999.90;999.90;;;7.60;99.90;;;;;;4992317;28;20963;-69
2023/12/19 05:06:58;;;;;;;1999.90;999.90;;;7.60;99.90;;;;;;4992211;28;20174;-68
2023/12/19 05:09:25;;;;;;;1999.90;999.90;;;7.60;99.90;;;;;;4992067;28;20275;-68
2023/12/19 05:11:51;;;;;;;1999.90;999.90;;;7.70;99.90;;;;;;4992236;28;20181;-69
2023/12/19 05:14:16;;;;;;;1999.90;999.90;;;7.60;99.90;;;;;;4992137;28;20456;-69
2023/12/19 05:16:42;;;;;;;1999.90;999.90;;;7.80;99.90;;;;;;4992282;28;20209;-68
2023/12/19 05:19:07;;;;;;;1999.90;999.90;;;7.80;99.90;;;;;;4991957;28;20241;-67
2023/12/19 05:21:37;;;;;;;1999.90;999.90;;;7.80;99.90;;;;;;4992235;28;20181;-69
2023/12/19 05:24:03;;;;;;;1999.90;999.90;;;7.80;99.90;;;;;;4995597;28;20643;-69
2023/12/19 05:26:29;;;;;;;1999.90;999.90;;;7.90;99.90;;;;;;4995907;28;20443;-69
2023/12/19 05:28:54;;;;;;;1999.90;999.90;;;7.90;99.90;;;;;;4995855;28;20451;-68
2023/12/19 05:31:20;;;;;;;1999.90;999.90;;;7.90;99.90;;;;;;4995789;28;20181;-69
2023/12/19 05:33:46;;;;;;;1999.90;999.90;;;8.00;99.90;;;;;;4995827;28;20205;-68
2023/12/19 05:36:15;;;;;;;1999.90;999.90;;;8.00;99.90;;;;;;4995674;28;20445;-69
2023/12/19 05:38:40;;;;;;;1999.90;999.90;;;8.00;99.90;;;;;;4995689;28;20429;-68
2023/12/19 05:41:06;;;;;;;1999.90;999.90;;;8.00;99.90;;;;;;4995439;28;20778;-68
2023/12/19 05:43:32;;;;;;;1999.90;999.90;;;8.00;99.90;;;;;;4995617;28;20189;-69
2023/12/19 05:45:59;;;;;;;1999.90;999.90;;;8.00;99.90;;;;;;4991176;28;20216;-69
2023/12/19 05:48:25;;;;;;;1999.90;999.90;;;8.10;99.90;;;;;;4995304;28;20721;-68
2023/12/19 05:50:51;;;;;;;1999.90;999.90;;;8.10;99.90;;;;;;4995277;28;20504;-67
2023/12/19 05:53:16;;;;;;;1999.90;999.90;;;8.10;99.90;;;;;;4995310;28;20621;-68
2023/12/19 05:55:43;;;;;;;1999.90;999.90;;;8.10;99.90;;;;;;4993238;28;20428;-69
2023/12/19 05:58:09;;;;;;;1999.90;999.90;;;8.20;99.90;;;;;;4988724;28;20205;-69
2023/12/19 06:00:34;;;;;;;1999.90;999.90;;;8.30;99.90;;;;;;4993373;28;20424;-70
2023/12/19 06:03:00;;;;;;;1999.90;999.90;;;8.30;99.90;;;;;;4995160;28;20178;-69
2023/12/19 06:05:26;;;;;;;1999.90;999.90;;;8.30;99.90;;;;;;4995241;28;20196;-69
2023/12/19 06:07:51;;;;;;;1999.90;999.90;;;8.20;99.90;;;;;;4995148;28;20193;-68
2023/12/19 06:10:17;;;;;;;1999.90;999.90;;;8.40;99.90;;;;;;4994884;28;20240;-69
2023/12/19 06:12:43;;;;;;;1999.90;999.90;;;8.40;99.90;;;;;;4994954;28;20197;-68
2023/12/19 06:15:13;;;;;;;1999.90;999.90;;;8.40;99.90;;;;;;4994761;28;20413;-69
2023/12/19 06:17:43;;;;;;;1999.90;999.90;;;7.90;99.90;;;;;;4989461;28;20206;-69
2023/12/19 06:20:10;;;;;;;1999.90;999.90;;;8.50;99.90;;;;;;4994609;28;20500;-69
2023/12/19 06:22:36;;;;;;;1999.90;999.90;;;8.60;99.90;;;;;;4995122;28;20417;-70
2023/12/19 06:25:02;;;;;;;1999.90;999.90;;;8.60;99.90;;;;;;4994782;28;20793;-70
2023/12/19 06:27:28;;;;;;;1999.90;999.90;;;8.60;99.90;;;;;;4994179;28;20419;-68
2023/12/19 06:29:55;;;;;;;1999.90;999.90;;;8.60;99.90;;;;;;4991814;28;20451;-68
2023/12/19 06:32:20;;;;;;;1999.90;999.90;;;8.60;99.90;;;;;;4994562;28;20183;-68
2023/12/19 06:34:46;;;;;;;1999.90;999.90;;;8.60;99.90;;;;;;4993382;28;20419;-69
2023/12/19 06:37:11;;;;;;;1999.90;999.90;;;8.60;99.90;;;;;;4994573;28;20175;-69
2023/12/19 06:39:37;;;;;;;1999.90;999.90;;;8.40;99.90;;;;;;4994323;28;20285;-69
2023/12/19 06:42:03;;;;;;;1999.90;999.90;;;8.40;99.90;;;;;;4994671;28;20236;-69
2023/12/19 06:44:29;;;;;;;1999.90;999.90;;;8.50;99.90;;;;;;4993826;28;20178;-69
2023/12/19 06:46:54;;;;;;;1999.90;999.90;;;8.50;99.90;;;;;;4992232;28;20471;-69
2023/12/19 06:49:20;;;;;;;1999.90;999.90;;;8.50;99.90;;;;;;4993331;28;20205;-68
2023/12/19 06:51:45;;;;;;;1999.90;999.90;;;8.50;99.90;;;;;;4994307;28;20573;-69
2023/12/19 06:54:11;;;;;;;1999.90;999.90;;;8.50;99.90;;;;;;4994164;28;20237;-69
2023/12/19 06:56:37;;;;;;;1999.90;999.90;;;8.40;99.90;;;;;;4994330;28;20625;-69
2023/12/19 06:59:04;;;;;;;1999.90;999.90;;;8.40;99.90;;;;;;4994216;28;20195;-69
2023/12/19 07:01:30;;;;;;;1999.90;999.90;;;8.30;99.90;;;;;;4988391;28;20235;-69
2023/12/19 07:03:55;;;;;;;1999.90;999.90;;;8.40;99.90;;;;;;4994112;28;20788;-69
2023/12/19 07:06:21;;;;;;;1999.90;999.90;;;8.50;99.90;;;;;;4994138;28;20563;-69
2023/12/19 07:08:47;;;;;;;1999.90;999.90;;;8.30;99.90;;;;;;4993940;28;20245;-69
2023/12/19 07:11:14;;;;;;;1999.90;999.90;;;8.50;99.90;;;;;;4993781;28;20487;-69
2023/12/19 07:13:39;;;;;;;1999.90;999.90;;;8.40;99.90;;;;;;4993979;28;20551;-70
2023/12/19 07:16:06;;;;;;;1999.90;999.90;;;8.40;99.90;;;;;;4993798;28;20409;-67
2023/12/19 07:18:32;;;;;;;1999.90;999.90;;;8.50;99.90;;;;;;4992472;28;20428;-69
2023/12/19 07:20:57;;;;;;;1999.90;999.90;;;8.40;99.90;;;;;;4993666;28;20413;-69
2023/12/19 07:23:24;;;;;;;1999.90;999.90;;;8.40;99.90;;;;;;4993641;28;20409;-69
2023/12/19 07:25:49;;;;;;;1999.90;999.90;;;8.40;99.90;;;;;;4993780;28;20551;-68
2023/12/19 07:28:16;;;;;;;1999.90;999.90;;;8.40;99.90;;;;;;4993609;28;20429;-69
2023/12/19 07:30:42;;;;;;;1999.90;999.90;;;8.30;99.90;;;;;;4993396;28;20187;-69
2023/12/19 07:33:07;;;;;;;1999.90;999.90;;;8.30;99.90;;;;;;4991619;28;20515;-69
2023/12/19 07:35:33;;;;;;;1999.90;999.90;;;8.40;99.90;;;;;;4992217;28;20210;-69
2023/12/19 07:37:58;;;;;;;1999.90;999.90;;;8.20;99.90;;;;;;4991959;28;20544;-69
2023/12/19 07:40:24;;;;;;;1999.90;999.90;;;8.30;99.90;;;;;;4993238;28;20197;-68
2023/12/19 07:42:49;;;;;;;1999.90;999.90;;;8.30;99.90;;;;;;4993399;28;20828;-68
2023/12/19 07:45:15;;;;;;;1999.90;999.90;;;8.40;99.90;;;;;;4993075;28;20174;-68
2023/12/19 07:47:41;;;;;;;1999.90;999.90;;;8.60;99.90;;;;;;4993298;28;20704;-68
2023/12/19 07:50:07;;;;;;;1999.90;999.90;;;8.40;99.90;;;;;;4991257;28;20193;-69
2023/12/19 07:52:33;;;;;;;1999.90;999.90;;;8.40;99.90;;;;;;4992898;28;20206;-69
2023/12/19 07:54:59;;;;;;;1999.90;999.90;;;8.50;99.90;;;;;;4993186;28;20417;-68
2023/12/19 07:57:24;;;;;;;1999.90;999.90;;;8.40;99.90;;;;;;4993179;28;20401;-68
2023/12/19 07:59:50;;;;;;;1999.90;999.90;;;8.50;99.90;;;;;;4992864;28;20196;-68
2023/12/19 08:02:16;;;;;;;1999.90;999.90;;;8.50;99.90;;;;;;4987163;28;20190;-68
2023/12/19 08:04:42;;;;;;;1999.90;999.90;;;8.60;99.90;;;;;;4990822;28;20191;-68
2023/12/19 08:07:09;;;;;;;1999.90;999.90;;;8.60;99.90;;;;;;4992695;28;20495;-68
2023/12/19 08:09:34;;;;;;;1999.90;999.90;;;8.60;99.90;;;;;;4987975;28;20437;-68
2023/12/19 08:12:00;;;;;;;1999.90;999.90;;;8.50;99.90;;;;;;4992902;28;20413;-69
2023/12/19 08:14:25;;;;;;;1999.90;999.90;;;8.50;99.90;;;;;;4992691;28;20757;-68
2023/12/19 08:16:51;;;;;;;1999.90;999.90;;;8.60;99.90;;;;;;4992794;28;20213;-69
2023/12/19 08:19:17;;;;;;;1999.90;999.90;;;8.70;99.90;;;;;;4990938;28;20191;-68
2023/12/19 08:21:52;;;;;;;1999.90;999.90;;;8.70;99.90;;;;;;4991462;28;20170;-68
2023/12/19 08:24:18;;;;;;;1999.90;999.90;;;8.80;99.90;;;;;;4992670;28;20414;-69
2023/12/19 08:26:51;;;;;;;1999.90;999.90;;;8.80;99.90;;;;;;4992782;28;20477;-68
2023/12/19 08:29:17;;;;;;;1999.90;999.90;;;8.80;99.90;;;;;;4992362;28;20440;-68
2023/12/19 08:31:45;;;;;;;1999.90;999.90;;;8.90;99.90;;;;;;4992391;28;20429;-68
2023/12/19 08:34:11;;;;;;;1999.90;999.90;;;8.90;99.90;;;;;;4992558;28;20468;-68
2023/12/19 08:36:36;;;;;;;1999.90;999.90;;;8.90;99.90;;;;;;4990506;28;20794;-68
2023/12/19 08:39:02;;;;;;;1999.90;999.90;;;8.90;99.90;;;;;;4992507;28;20439;-68
2023/12/19 08:41:28;;;;;;;1999.90;999.90;;;9.00;99.90;;;;;;4992394;28;20167;-68
2023/12/19 08:43:53;;;;;;;1999.90;999.90;;;9.00;99.90;;;;;;4992437;28;20449;-69
2023/12/19 08:46:19;;;;;;;1999.90;999.90;;;9.00;99.90;;;;;;4992536;28;20176;-69
2023/12/19 08:48:49;;;;;;;1999.90;999.90;;;9.00;99.90;;;;;;4992275;28;20582;-69
2023/12/19 08:51:15;;;;;;;1999.90;999.90;;;9.00;99.90;;;;;;4987927;28;20433;-69
2023/12/19 08:53:41;;;;;;;1999.90;999.90;;;9.10;99.90;;;;;;4992134;28;20467;-69
2023/12/19 08:56:07;;;;;;;1999.90;999.90;;;9.10;99.90;;;;;;4991676;28;20429;-69
2023/12/19 08:58:32;;;;;;;1999.90;999.90;;;9.20;99.90;;;;;;4995043;28;20199;-69
2023/12/19 09:00:58;;;;;;;1999.90;999.90;;;9.20;99.90;;;;;;4996314;28;20588;-69
2023/12/19 09:03:24;;;;;;;1999.90;999.90;;;9.20;99.90;;;;;;4996333;28;20174;-69
2023/12/19 09:05:50;;;;;;;1999.90;999.90;;;9.30;99.90;;;;;;4996314;28;20278;-69
2023/12/19 09:08:16;;;;;;;1999.90;999.90;;;9.30;99.90;;;;;;4996035;28;20544;-69
2023/12/19 09:10:41;;;;;;;1999.90;999.90;;;9.40;99.90;;;;;;4995955;28;20187;-69
2023/12/19 09:13:07;;;;;;;1999.90;999.90;;;9.40;99.90;;;;;;4996129;28;20600;-69
2023/12/19 09:15:35;;;;;;;1999.90;999.90;;;9.40;99.90;;;;;;4996376;28;20200;-69
2023/12/19 09:18:03;;;;;;;1999.90;999.90;;;9.40;99.90;;;;;;4995998;28;20449;-69
2023/12/19 09:20:29;;;;;;;1999.90;999.90;;;9.50;99.90;;;;;;4995824;28;20414;-69
2023/12/19 09:22:54;;;;;;;1999.90;999.90;;;9.40;99.90;;;;;;4995998;28;20441;-69
2023/12/19 09:25:20;;;;;;;1999.90;999.90;;;9.40;99.90;;;;;;4996102;28;20415;-69
2023/12/19 09:27:46;;;;;;;1999.90;999.90;;;9.70;99.90;;;;;;4995928;28;20636;-69
2023/12/19 09:30:14;;;;;;;1999.90;999.90;;;9.50;99.90;;;;;;4992924;28;20604;-69
2023/12/19 09:32:40;;;;;;;1999.90;999.90;;;9.60;99.90;;;;;;4989137;28;20209;-69
2023/12/19 09:35:07;;;;;;;1999.90;999.90;;;9.60;99.90;;;;;;5007303;28;20509;-70
2023/12/19 09:37:33;;;;;;;1999.90;999.90;;;9.70;99.90;;;;;;4996028;28;20410;-69
2023/12/19 09:39:59;;;;;;;1999.90;999.90;;;9.80;99.90;;;;;;4987047;28;20437;-70
2023/12/19 09:42:25;;;;;;;1999.90;999.90;;;9.80;99.90;;;;;;4999757;28;20414;-69
2023/12/19 09:44:51;;;;;;;1999.90;999.90;;;9.90;99.90;;;;;;4992601;28;20195;-69
2023/12/19 09:47:24;;;;;;;1999.90;999.90;;;9.90;99.90;;;;;;4994797;28;20473;-70
2023/12/19 09:49:54;;;;;;;1999.90;999.90;;;9.90;99.90;;;;;;4994319;28;20276;-70
2023/12/19 09:52:22;;;;;;;1999.90;999.90;;;9.70;99.90;;;;;;4995501;28;20469;-68
2023/12/19 09:54:50;;;;;;;1999.90;999.90;;;9.90;99.90;;;;;;4995160;28;20480;-70
2023/12/19 09:57:17;;;;;;;1999.90;999.90;;;9.80;99.90;;;;;;4994907;28;20445;-69
2023/12/19 09:59:46;;;;;;;1999.90;999.90;;;9.90;99.90;;;;;;4993602;28;20440;-69
2023/12/19 10:02:11;;;;;;;1999.90;999.90;;;10.20;99.90;;;;;;4994749;28;20424;-69
2023/12/19 10:04:37;;;;;;;1999.90;999.90;;;10.00;99.90;;;;;;4994079;28;20431;-69
2023/12/19 10:07:04;;;;;;;1999.90;999.90;;;10.00;99.90;;;;;;4993989;28;20556;-69
2023/12/19 10:09:30;;;;;;;1999.90;999.90;;;10.10;99.90;;;;;;4988712;28;20445;-69
2023/12/19 10:12:10;;;;;;;1999.90;999.90;;;10.10;99.90;;;;;;4994216;28;20931;-69
2023/12/19 10:14:36;;;;;;;1999.90;999.90;;;10.00;99.90;;;;;;4993820;28;20215;-69
2023/12/19 10:17:07;;;;;;;1999.90;999.90;;;10.10;99.90;;;;;;4994881;28;20800;-68
2023/12/19 10:19:38;;;;;;;1999.90;999.90;;;10.10;99.90;;;;;;4993903;28;20426;-68
2023/12/19 10:22:07;;;;;;;1999.90;999.90;;;10.00;99.90;;;;;;4994207;28;20408;-68
2023/12/19 10:24:33;;;;;;;1999.90;999.90;;;10.20;99.90;;;;;;4994212;28;20473;-68
2023/12/19 10:27:00;;;;;;;1999.90;999.90;;;10.00;99.90;;;;;;4994369;28;20424;-68
2023/12/19 10:29:26;;;;;;;1999.90;999.90;;;10.10;99.90;;;;;;4993241;28;20493;-69
2023/12/19 10:31:52;;;;;;;1999.90;999.90;;;10.00;99.90;;;;;;4994228;28;20914;-69
2023/12/19 10:34:18;;;;;;;1999.90;999.90;;;10.00;99.90;;;;;;4993882;28;20549;-69
2023/12/19 10:36:44;;;;;;;1999.90;999.90;;;9.90;99.90;;;;;;4993960;28;20189;-69
2023/12/19 10:39:11;;;;;;;1999.90;999.90;;;10.00;99.90;;;;;;4994098;28;20457;-67
2023/12/19 10:41:40;;;;;;;1999.90;999.90;;;10.10;99.90;;;;;;4994463;28;20183;-67
2023/12/19 10:44:07;;;;;;;1999.90;999.90;;;10.10;99.90;;;;;;5000781;28;20423;-67
2023/12/19 10:46:33;;;;;;;1999.90;999.90;;;10.00;99.90;;;;;;4994165;28;20427;-67
2023/12/19 10:49:01;;;;;;;1999.90;999.90;;;10.10;99.90;;;;;;4993713;28;20498;-68
2023/12/19 10:51:32;;;;;;;1999.90;999.90;;;10.20;99.90;;;;;;4992888;28;21244;-68
2023/12/19 10:54:10;;;;;;;1999.90;999.90;;;10.40;99.90;;;;;;4993694;28;20528;-68
2023/12/19 10:57:04;;;;;;;1999.90;999.90;;;10.00;99.90;;;;;;4993802;28;20415;-69
2023/12/19 10:59:40;;;;;;;1999.90;999.90;;;10.20;99.90;;;;;;4992642;28;20431;-67
2023/12/19 11:02:27;;;;;;;1999.90;999.90;;;10.20;99.90;;;;;;4993661;28;20788;-68
2023/12/19 11:05:16;;;;;;;1999.90;999.90;;;10.20;99.90;;;;;;4993594;28;20466;-67
2023/12/19 11:07:43;;;;;;;1999.90;999.90;;;10.20;99.90;;;;;;4992885;28;20795;-67
2023/12/19 11:10:10;;;;;;;1999.90;999.90;;;10.30;99.90;;;;;;4993309;28;20415;-69
2023/12/19 11:12:37;;;;;;;1999.90;999.90;;;10.30;99.90;;;;;;4993475;28;20443;-69
2023/12/19 11:15:05;;;;;;;1999.90;999.90;;;10.30;99.90;;;;;;4993103;28;20411;-68
2023/12/19 11:18:11;;;;;;;1999.90;999.90;;;10.40;99.90;;;;;;4993607;28;20424;-68
2023/12/19 11:20:45;;;;;;;1999.90;999.90;;;10.40;99.90;;;;;;4971510;28;20927;-69
2023/12/19 11:23:42;;;;;;;1999.90;999.90;;;10.40;99.90;;;;;;4992930;28;20431;-68
2023/12/19 11:26:25;;;;;;;1999.90;999.90;;;10.20;99.90;;;;;;4993188;28;20574;-68
2023/12/19 11:28:50;;;;;;;1999.90;999.90;;;10.20;99.90;;;;;;4992617;28;20446;-67
2023/12/19 11:31:33;;;;;;;1999.90;999.90;;;10.20;99.90;;;;;;4992755;28;20425;-68
2023/12/19 11:34:20;;;;;;;1999.90;999.90;;;10.10;99.90;;;;;;4992826;28;20629;-68
2023/12/19 11:36:46;;;;;;;1999.90;999.90;;;10.10;99.90;;;;;;4992424;28;20497;-67
2023/12/19 11:39:25;;;;;;;1999.90;999.90;;;9.80;99.90;;;;;;4992390;28;20477;-67
2023/12/19 11:41:50;;;;;;;1999.90;999.90;;;9.10;99.90;;;;;;4992962;28;20416;-67
2023/12/19 11:44:37;;;;;;;1999.90;999.90;;;10.00;99.90;;;;;;4992260;28;20418;-68
2023/12/19 11:47:15;;;;;;;1999.90;999.90;;;9.90;99.90;;;;;;4992666;28;20187;-67
2023/12/19 11:49:41;;;;;;;1999.90;999.90;;;9.90;99.90;;;;;;4989532;28;20467;-69
2023/12/19 11:52:07;;;;;;;1999.90;999.90;;;9.70;99.90;;;;;;4997599;28;20421;-68
2023/12/19 11:54:33;;;;;;;1999.90;999.90;;;10.00;99.90;;;;;;4992515;28;20476;-67
2023/12/19 11:57:01;;;;;;;1999.90;999.90;;;9.90;99.90;;;;;;4992603;28;20188;-68
2023/12/19 11:59:54;;;;;;;1999.90;999.90;;;9.90;99.90;;;;;;4990905;28;20204;-67
2023/12/19 12:02:30;;;;;;;1999.90;999.90;;;10.00;99.90;;;;;;4990559;28;20425;-68
2023/12/19 12:05:19;;;;;;;1999.90;999.90;;;9.70;99.90;;;;;;4991635;28;20813;-67